sensor_id;sensor_type;location;lat;lon;timestamp;pressure;altitude;pressure_sealevel;temperature
78917;BMP280;68315;48.608;11.436;2024-02-23T00:01:27;95118.47;;;10.17
78917;BMP280;68315;48.608;11.436;2024-02-23T00:03:52;95120.31;;;10.14
78917;BMP280;68315;48.608;11.436;2024-02-23T00:06:18;95127.84;;;10.13
78917;BMP280;68315;48.608;11.436;2024-02-23T00:08:43;95129.28;;;10.15
78917;BMP280;68315;48.608;11.436;2024-02-23T00:11:08;95130.00;;;10.15
78917;BMP280;68315;48.608;11.436;2024-02-23T00:13:34;95137.81;;;10.19
78917;BMP280;68315;48.608;11.436;2024-02-23T00:15:59;95153.09;;;10.22
78917;BMP280;68315;48.608;11.436;2024-02-23T00:18:24;95151.09;;;10.22
78917;BMP280;68315;48.608;11.436;2024-02-23T00:20:49;95160.16;;;10.15
78917;BMP280;68315;48.608;11.436;2024-02-23T00:23:15;95173.47;;;10.09
78917;BMP280;68315;48.608;11.436;2024-02-23T00:25:40;95185.00;;;10.07
78917;BMP280;68315;48.608;11.436;2024-02-23T00:28:05;95187.47;;;10.03
78917;BMP280;68315;48.608;11.436;2024-02-23T00:30:30;95196.84;;;10.00
78917;BMP280;68315;48.608;11.436;2024-02-23T00:32:56;95214.75;;;10.01
78917;BMP280;68315;48.608;11.436;2024-02-23T00:35:21;95212.41;;;9.98
78917;BMP280;68315;48.608;11.436;2024-02-23T00:37:46;95203.47;;;9.97
78917;BMP280;68315;48.608;11.436;2024-02-23T00:40:12;95218.91;;;9.93
78917;BMP280;68315;48.608;11.436;2024-02-23T00:42:37;95228.88;;;9.98
78917;BMP280;68315;48.608;11.436;2024-02-23T00:45:03;95225.53;;;9.90
78917;BMP280;68315;48.608;11.436;2024-02-23T00:47:28;95232.88;;;9.87
78917;BMP280;68315;48.608;11.436;2024-02-23T00:49:53;95233.88;;;9.82
78917;BMP280;68315;48.608;11.436;2024-02-23T00:52:19;95252.63;;;9.76
78917;BMP280;68315;48.608;11.436;2024-02-23T00:54:44;95243.91;;;9.70
78917;BMP280;68315;48.608;11.436;2024-02-23T00:57:09;95247.50;;;9.63
78917;BMP280;68315;48.608;11.436;2024-02-23T00:59:35;95254.56;;;9.57
78917;BMP280;68315;48.608;11.436;2024-02-23T01:02:00;95268.84;;;9.55
78917;BMP280;68315;48.608;11.436;2024-02-23T01:04:25;95264.47;;;9.52
78917;BMP280;68315;48.608;11.436;2024-02-23T01:06:51;95261.81;;;9.45
78917;BMP280;68315;48.608;11.436;2024-02-23T01:09:16;95272.75;;;9.35
78917;BMP280;68315;48.608;11.436;2024-02-23T01:11:45;95275.31;;;9.33
78917;BMP280;68315;48.608;11.436;2024-02-23T01:14:10;95272.66;;;9.25
78917;BMP280;68315;48.608;11.436;2024-02-23T01:16:36;95265.44;;;9.20
78917;BMP280;68315;48.608;11.436;2024-02-23T01:19:01;95275.78;;;9.12
78917;BMP280;68315;48.608;11.436;2024-02-23T01:21:28;95282.91;;;9.08
78917;BMP280;68315;48.608;11.436;2024-02-23T01:23:53;95287.50;;;9.05
78917;BMP280;68315;48.608;11.436;2024-02-23T01:26:18;95308.56;;;9.03
78917;BMP280;68315;48.608;11.436;2024-02-23T01:28:43;95283.75;;;9.01
78917;BMP280;68315;48.608;11.436;2024-02-23T01:31:09;95284.13;;;8.97
78917;BMP280;68315;48.608;11.436;2024-02-23T01:33:36;95300.81;;;8.92
78917;BMP280;68315;48.608;11.436;2024-02-23T01:36:04;95300.66;;;8.90
78917;BMP280;68315;48.608;11.436;2024-02-23T01:38:29;95303.41;;;8.90
78917;BMP280;68315;48.608;11.436;2024-02-23T01:40:57;95323.13;;;8.88
78917;BMP280;68315;48.608;11.436;2024-02-23T01:43:22;95332.06;;;8.89
78917;BMP280;68315;48.608;11.436;2024-02-23T01:45:47;95355.50;;;8.82
78917;BMP280;68315;48.608;11.436;2024-02-23T01:48:13;95370.09;;;8.43
78917;BMP280;68315;48.608;11.436;2024-02-23T01:50:39;95369.66;;;7.90
78917;BMP280;68315;48.608;11.436;2024-02-23T01:53:05;95381.16;;;7.41
78917;BMP280;68315;48.608;11.436;2024-02-23T01:55:30;95364.31;;;7.12
78917;BMP280;68315;48.608;11.436;2024-02-23T01:57:56;95380.16;;;6.91
78917;BMP280;68315;48.608;11.436;2024-02-23T02:00:21;95388.00;;;6.79
78917;BMP280;68315;48.608;11.436;2024-02-23T02:02:48;95390.53;;;6.70
78917;BMP280;68315;48.608;11.436;2024-02-23T02:05:14;95387.84;;;6.62
78917;BMP280;68315;48.608;11.436;2024-02-23T02:07:40;95383.25;;;6.57
78917;BMP280;68315;48.608;11.436;2024-02-23T02:10:08;95386.53;;;6.48
78917;BMP280;68315;48.608;11.436;2024-02-23T02:12:34;95383.09;;;6.40
78917;BMP280;68315;48.608;11.436;2024-02-23T02:14:59;95391.97;;;6.33
78917;BMP280;68315;48.608;11.436;2024-02-23T02:17:27;95389.59;;;6.22
78917;BMP280;68315;48.608;11.436;2024-02-23T02:19:52;95407.91;;;6.14
78917;BMP280;68315;48.608;11.436;2024-02-23T02:22:17;95411.75;;;6.11
78917;BMP280;68315;48.608;11.436;2024-02-23T02:24:42;95405.16;;;5.99
78917;BMP280;68315;48.608;11.436;2024-02-23T02:27:09;95425.69;;;6.00
78917;BMP280;68315;48.608;11.436;2024-02-23T02:29:37;95428.97;;;5.98
78917;BMP280;68315;48.608;11.436;2024-02-23T02:32:03;95428.00;;;5.88
78917;BMP280;68315;48.608;11.436;2024-02-23T02:34:28;95428.53;;;5.87
78917;BMP280;68315;48.608;11.436;2024-02-23T02:36:54;95434.88;;;5.82
78917;BMP280;68315;48.608;11.436;2024-02-23T02:39:19;95438.66;;;5.79
78917;BMP280;68315;48.608;11.436;2024-02-23T02:41:45;95424.13;;;5.68
78917;BMP280;68315;48.608;11.436;2024-02-23T02:44:10;95422.28;;;5.71
78917;BMP280;68315;48.608;11.436;2024-02-23T02:46:38;95417.03;;;5.73
78917;BMP280;68315;48.608;11.436;2024-02-23T02:49:03;95430.81;;;5.67
78917;BMP280;68315;48.608;11.436;2024-02-23T02:51:28;95430.63;;;5.65
78917;BMP280;68315;48.608;11.436;2024-02-23T02:53:53;95423.94;;;5.66
78917;BMP280;68315;48.608;11.436;2024-02-23T02:56:19;95427.72;;;5.63
78917;BMP280;68315;48.608;11.436;2024-02-23T02:58:44;95438.03;;;5.57
78917;BMP280;68315;48.608;11.436;2024-02-23T03:01:09;95437.28;;;5.57
78917;BMP280;68315;48.608;11.436;2024-02-23T03:03:34;95438.22;;;5.59
78917;BMP280;68315;48.608;11.436;2024-02-23T03:06:00;95439.72;;;5.68
78917;BMP280;68315;48.608;11.436;2024-02-23T03:08:25;95445.72;;;5.66
78917;BMP280;68315;48.608;11.436;2024-02-23T03:10:51;95440.47;;;5.68
78917;BMP280;68315;48.608;11.436;2024-02-23T03:13:16;95441.75;;;5.75
78917;BMP280;68315;48.608;11.436;2024-02-23T03:15:41;95442.44;;;5.68
78917;BMP280;68315;48.608;11.436;2024-02-23T03:18:07;95454.06;;;5.68
78917;BMP280;68315;48.608;11.436;2024-02-23T03:20:34;95449.72;;;5.73
78917;BMP280;68315;48.608;11.436;2024-02-23T03:22:59;95456.22;;;5.70
78917;BMP280;68315;48.608;11.436;2024-02-23T03:25:26;95448.88;;;5.78
78917;BMP280;68315;48.608;11.436;2024-02-23T03:27:51;95447.59;;;5.79
78917;BMP280;68315;48.608;11.436;2024-02-23T03:30:16;95444.25;;;5.73
78917;BMP280;68315;48.608;11.436;2024-02-23T03:32:41;95439.97;;;5.78
78917;BMP280;68315;48.608;11.436;2024-02-23T03:35:07;95447.59;;;5.79
78917;BMP280;68315;48.608;11.436;2024-02-23T03:37:35;95448.88;;;5.86
78917;BMP280;68315;48.608;11.436;2024-02-23T03:40:01;95439.59;;;5.81
78917;BMP280;68315;48.608;11.436;2024-02-23T03:42:26;95453.75;;;5.80
78917;BMP280;68315;48.608;11.436;2024-02-23T03:44:52;95443.06;;;5.82
78917;BMP280;68315;48.608;11.436;2024-02-23T03:47:17;95443.59;;;5.80
78917;BMP280;68315;48.608;11.436;2024-02-23T03:49:42;95444.84;;;5.79
78917;BMP280;68315;48.608;11.436;2024-02-23T03:52:08;95429.78;;;5.78
78917;BMP280;68315;48.608;11.436;2024-02-23T03:54:33;95424.53;;;5.80
78917;BMP280;68315;48.608;11.436;2024-02-23T03:56:58;95422.53;;;5.81
78917;BMP280;68315;48.608;11.436;2024-02-23T03:59:24;95421.81;;;5.88
78917;BMP280;68315;48.608;11.436;2024-02-23T04:01:49;95421.47;;;5.84
78917;BMP280;68315;48.608;11.436;2024-02-23T04:04:14;95424.53;;;5.88
78917;BMP280;68315;48.608;11.436;2024-02-23T04:06:39;95424.72;;;5.82
78917;BMP280;68315;48.608;11.436;2024-02-23T04:09:05;95419.59;;;5.79
78917;BMP280;68315;48.608;11.436;2024-02-23T04:11:31;95425.25;;;5.81
78917;BMP280;68315;48.608;11.436;2024-02-23T04:13:56;95442.16;;;5.87
78917;BMP280;68315;48.608;11.436;2024-02-23T04:16:24;95428.34;;;5.85
78917;BMP280;68315;48.608;11.436;2024-02-23T04:18:50;95436.91;;;5.89
78917;BMP280;68315;48.608;11.436;2024-02-23T04:21:15;95448.00;;;5.91
78917;BMP280;68315;48.608;11.436;2024-02-23T04:23:40;95450.13;;;5.85
78917;BMP280;68315;48.608;11.436;2024-02-23T04:26:06;95454.31;;;5.86
78917;BMP280;68315;48.608;11.436;2024-02-23T04:28:31;95456.50;;;5.87
78917;BMP280;68315;48.608;11.436;2024-02-23T04:30:58;95455.25;;;5.81
78917;BMP280;68315;48.608;11.436;2024-02-23T04:33:24;95461.41;;;5.81
78917;BMP280;68315;48.608;11.436;2024-02-23T04:35:49;95455.25;;;5.81
78917;BMP280;68315;48.608;11.436;2024-02-23T04:38:14;95459.63;;;5.84
78917;BMP280;68315;48.608;11.436;2024-02-23T04:40:40;95457.44;;;5.90
78917;BMP280;68315;48.608;11.436;2024-02-23T04:43:05;95457.41;;;5.82
78917;BMP280;68315;48.608;11.436;2024-02-23T04:45:30;95459.97;;;5.88
78917;BMP280;68315;48.608;11.436;2024-02-23T04:47:55;95455.25;;;5.81
78917;BMP280;68315;48.608;11.436;2024-02-23T04:50:21;95453.56;;;5.78
78917;BMP280;68315;48.608;11.436;2024-02-23T04:52:46;95458.63;;;5.74
78917;BMP280;68315;48.608;11.436;2024-02-23T04:55:11;95455.38;;;5.75
78917;BMP280;68315;48.608;11.436;2024-02-23T04:57:37;95457.03;;;5.78
78917;BMP280;68315;48.608;11.436;2024-02-23T05:00:03;95460.09;;;5.75
78917;BMP280;68315;48.608;11.436;2024-02-23T05:02:29;95458.94;;;5.70
78917;BMP280;68315;48.608;11.436;2024-02-23T05:05:00;95450.63;;;5.68
78917;BMP280;68315;48.608;11.436;2024-02-23T05:07:25;95444.66;;;5.70
78917;BMP280;68315;48.608;11.436;2024-02-23T05:09:50;95443.19;;;5.68
78917;BMP280;68315;48.608;11.436;2024-02-23T05:12:15;95445.91;;;5.68
78917;BMP280;68315;48.608;11.436;2024-02-23T05:14:40;95445.34;;;5.70
78917;BMP280;68315;48.608;11.436;2024-02-23T05:17:06;95433.34;;;5.65
78917;BMP280;68315;48.608;11.436;2024-02-23T05:19:31;95426.06;;;5.60
78917;BMP280;68315;48.608;11.436;2024-02-23T05:21:56;95426.78;;;5.61
78917;BMP280;68315;48.608;11.436;2024-02-23T05:24:21;95428.47;;;5.64
78917;BMP280;68315;48.608;11.436;2024-02-23T05:26:46;95433.50;;;5.60
78917;BMP280;68315;48.608;11.436;2024-02-23T05:29:12;95435.28;;;5.57
78917;BMP280;68315;48.608;11.436;2024-02-23T05:31:51;95442.72;;;5.57
78917;BMP280;68315;48.608;11.436;2024-02-23T05:34:16;95450.75;;;5.62
78917;BMP280;68315;48.608;11.436;2024-02-23T05:36:42;95445.13;;;5.60
78917;BMP280;68315;48.608;11.436;2024-02-23T05:39:08;95451.63;;;5.57
78917;BMP280;68315;48.608;11.436;2024-02-23T05:41:34;95457.47;;;5.61
78917;BMP280;68315;48.608;11.436;2024-02-23T05:43:59;95450.75;;;5.62
78917;BMP280;68315;48.608;11.436;2024-02-23T05:46:25;95453.69;;;5.64
78917;BMP280;68315;48.608;11.436;2024-02-23T05:48:50;95464.06;;;5.66
78917;BMP280;68315;48.608;11.436;2024-02-23T05:51:15;95468.34;;;5.61
78917;BMP280;68315;48.608;11.436;2024-02-23T05:53:40;95464.78;;;5.66
78917;BMP280;68315;48.608;11.436;2024-02-23T05:56:06;95487.84;;;5.73
78917;BMP280;68315;48.608;11.436;2024-02-23T05:58:31;95481.31;;;5.68
78917;BMP280;68315;48.608;11.436;2024-02-23T06:00:56;95491.47;;;5.68
78917;BMP280;68315;48.608;11.436;2024-02-23T06:03:21;95497.25;;;5.64
78917;BMP280;68315;48.608;11.436;2024-02-23T06:05:47;95508.50;;;5.61
78917;BMP280;68315;48.608;11.436;2024-02-23T06:08:12;95505.91;;;5.55
78917;BMP280;68315;48.608;11.436;2024-02-23T06:10:37;95503.56;;;5.52
78917;BMP280;68315;48.608;11.436;2024-02-23T06:13:03;95508.06;;;5.49
78917;BMP280;68315;48.608;11.436;2024-02-23T06:15:28;95511.31;;;5.48
78917;BMP280;68315;48.608;11.436;2024-02-23T06:17:53;95512.59;;;5.47
78917;BMP280;68315;48.608;11.436;2024-02-23T06:20:18;95514.34;;;5.44
78917;BMP280;68315;48.608;11.436;2024-02-23T06:22:45;95515.09;;;5.45
78917;BMP280;68315;48.608;11.436;2024-02-23T06:25:10;95523.25;;;5.45
78917;BMP280;68315;48.608;11.436;2024-02-23T06:27:38;95531.44;;;5.45
78917;BMP280;68315;48.608;11.436;2024-02-23T06:30:04;95531.66;;;5.47
78917;BMP280;68315;48.608;11.436;2024-02-23T06:32:30;95542.00;;;5.48
78917;BMP280;68315;48.608;11.436;2024-02-23T06:34:55;95537.28;;;5.49
78917;BMP280;68315;48.608;11.436;2024-02-23T06:37:20;95538.22;;;5.51
78917;BMP280;68315;48.608;11.436;2024-02-23T06:39:46;95534.25;;;5.52
78917;BMP280;68315;48.608;11.436;2024-02-23T06:42:16;95535.88;;;5.55
78917;BMP280;68315;48.608;11.436;2024-02-23T06:44:41;95542.97;;;5.58
78917;BMP280;68315;48.608;11.436;2024-02-23T06:47:06;95540.97;;;5.59
78917;BMP280;68315;48.608;11.436;2024-02-23T06:49:32;95541.72;;;5.59
78917;BMP280;68315;48.608;11.436;2024-02-23T06:51:57;95546.66;;;5.61
78917;BMP280;68315;48.608;11.436;2024-02-23T06:54:22;95536.69;;;5.63
78917;BMP280;68315;48.608;11.436;2024-02-23T06:56:47;95535.22;;;5.62
78917;BMP280;68315;48.608;11.436;2024-02-23T06:59:12;95530.31;;;5.61
78917;BMP280;68315;48.608;11.436;2024-02-23T07:01:48;95524.13;;;5.60
78917;BMP280;68315;48.608;11.436;2024-02-23T07:04:13;95518.66;;;5.60
78917;BMP280;68315;48.608;11.436;2024-02-23T07:06:39;95523.38;;;5.60
78917;BMP280;68315;48.608;11.436;2024-02-23T07:09:04;95522.13;;;5.61
78917;BMP280;68315;48.608;11.436;2024-02-23T07:11:29;95524.84;;;5.61
78917;BMP280;68315;48.608;11.436;2024-02-23T07:13:55;95531.00;;;5.61
78917;BMP280;68315;48.608;11.436;2024-02-23T07:16:21;95533.72;;;5.61
78917;BMP280;68315;48.608;11.436;2024-02-23T07:18:47;95539.91;;;5.62
78917;BMP280;68315;48.608;11.436;2024-02-23T07:21:12;95549.56;;;5.63
78917;BMP280;68315;48.608;11.436;2024-02-23T07:23:37;95543.38;;;5.62
78917;BMP280;68315;48.608;11.436;2024-02-23T07:26:03;95555.75;;;5.63
78917;BMP280;68315;48.608;11.436;2024-02-23T07:28:28;95554.28;;;5.62
78917;BMP280;68315;48.608;11.436;2024-02-23T07:30:53;95556.47;;;5.64
78917;BMP280;68315;48.608;11.436;2024-02-23T07:33:18;95561.19;;;5.63
78917;BMP280;68315;48.608;11.436;2024-02-23T07:35:44;95569.56;;;5.65
78917;BMP280;68315;48.608;11.436;2024-02-23T07:38:09;95566.84;;;5.65
78917;BMP280;68315;48.608;11.436;2024-02-23T07:40:34;95565.59;;;5.66
78917;BMP280;68315;48.608;11.436;2024-02-23T07:42:59;95568.50;;;5.68
78917;BMP280;68315;48.608;11.436;2024-02-23T07:45:24;95573.38;;;5.70
78917;BMP280;68315;48.608;11.436;2024-02-23T07:47:51;95567.25;;;5.70
78917;BMP280;68315;48.608;11.436;2024-02-23T07:50:16;95567.59;;;5.74
78917;BMP280;68315;48.608;11.436;2024-02-23T07:52:46;95564.34;;;5.75
78917;BMP280;68315;48.608;11.436;2024-02-23T07:55:11;95565.81;;;5.76
78917;BMP280;68315;48.608;11.436;2024-02-23T07:57:36;95571.47;;;5.78
78917;BMP280;68315;48.608;11.436;2024-02-23T08:00:03;95576.38;;;5.80
78917;BMP280;68315;48.608;11.436;2024-02-23T08:02:29;95570.38;;;5.81
78917;BMP280;68315;48.608;11.436;2024-02-23T08:04:54;95563.31;;;5.86
78917;BMP280;68315;48.608;11.436;2024-02-23T08:07:19;95564.78;;;5.87
78917;BMP280;68315;48.608;11.436;2024-02-23T08:09:45;95559.72;;;5.91
78917;BMP280;68315;48.608;11.436;2024-02-23T08:12:10;95559.72;;;5.91
78917;BMP280;68315;48.608;11.436;2024-02-23T08:14:36;95546.28;;;5.93
78917;BMP280;68315;48.608;11.436;2024-02-23T08:17:01;95532.66;;;5.93
78917;BMP280;68315;48.608;11.436;2024-02-23T08:19:27;95526.16;;;5.96
78917;BMP280;68315;48.608;11.436;2024-02-23T08:21:52;95516.34;;;6.00
78917;BMP280;68315;48.608;11.436;2024-02-23T08:24:17;95514.00;;;6.04
78917;BMP280;68315;48.608;11.436;2024-02-23T08:26:42;95531.50;;;6.09
78917;BMP280;68315;48.608;11.436;2024-02-23T08:29:08;95532.59;;;6.13
78917;BMP280;68315;48.608;11.436;2024-02-23T08:31:34;95534.44;;;6.18
78917;BMP280;68315;48.608;11.436;2024-02-23T08:33:59;95542.59;;;6.18
78917;BMP280;68315;48.608;11.436;2024-02-23T08:36:24;95536.41;;;6.18
78917;BMP280;68315;48.608;11.436;2024-02-23T08:38:49;95552.06;;;6.17
78917;BMP280;68315;48.608;11.436;2024-02-23T08:41:15;95558.22;;;6.18
78917;BMP280;68315;48.608;11.436;2024-02-23T08:43:40;95556.78;;;6.17
78917;BMP280;68315;48.608;11.436;2024-02-23T08:46:05;95556.97;;;6.19
78917;BMP280;68315;48.608;11.436;2024-02-23T08:48:31;95553.19;;;6.22
78917;BMP280;68315;48.608;11.436;2024-02-23T08:50:56;95559.03;;;6.26
78917;BMP280;68315;48.608;11.436;2024-02-23T08:53:21;95560.13;;;6.30
78917;BMP280;68315;48.608;11.436;2024-02-23T08:55:47;95579.94;;;6.31
78917;BMP280;68315;48.608;11.436;2024-02-23T08:58:12;95580.47;;;6.29
78917;BMP280;68315;48.608;11.436;2024-02-23T09:00:37;95589.38;;;6.30
78917;BMP280;68315;48.608;11.436;2024-02-23T09:03:03;95581.38;;;6.32
78917;BMP280;68315;48.608;11.436;2024-02-23T09:05:28;95587.38;;;6.30
78917;BMP280;68315;48.608;11.436;2024-02-23T09:07:54;95577.94;;;6.31
78917;BMP280;68315;48.608;11.436;2024-02-23T09:10:19;95585.91;;;6.29
78917;BMP280;68315;48.608;11.436;2024-02-23T09:12:44;95595.03;;;6.32
78917;BMP280;68315;48.608;11.436;2024-02-23T09:15:09;95599.97;;;6.33
78917;BMP280;68315;48.608;11.436;2024-02-23T09:17:35;95601.97;;;6.40
78917;BMP280;68315;48.608;11.436;2024-02-23T09:20:00;95624.00;;;6.43
78917;BMP280;68315;48.608;11.436;2024-02-23T09:22:25;95627.44;;;6.43
78917;BMP280;68315;48.608;11.436;2024-02-23T09:24:51;95610.38;;;6.43
78917;BMP280;68315;48.608;11.436;2024-02-23T09:27:17;95608.88;;;6.42
78917;BMP280;68315;48.608;11.436;2024-02-23T09:29:45;95605.28;;;6.47
78917;BMP280;68315;48.608;11.436;2024-02-23T09:32:10;95608.00;;;6.47
78917;BMP280;68315;48.608;11.436;2024-02-23T09:34:36;95605.63;;;6.43
78917;BMP280;68315;48.608;11.436;2024-02-23T09:37:01;95606.00;;;6.40
78917;BMP280;68315;48.608;11.436;2024-02-23T09:39:27;95603.06;;;6.37
78917;BMP280;68315;48.608;11.436;2024-02-23T09:41:55;95602.13;;;6.35
78917;BMP280;68315;48.608;11.436;2024-02-23T09:44:22;95601.81;;;6.38
78917;BMP280;68315;48.608;11.436;2024-02-23T09:46:48;95609.25;;;6.38
78917;BMP280;68315;48.608;11.436;2024-02-23T09:49:14;95604.34;;;6.44
78917;BMP280;68315;48.608;11.436;2024-02-23T09:51:40;95615.13;;;6.50
78917;BMP280;68315;48.608;11.436;2024-02-23T09:54:06;95616.38;;;6.49
78917;BMP280;68315;48.608;11.436;2024-02-23T09:56:32;95611.28;;;6.45
78917;BMP280;68315;48.608;11.436;2024-02-23T09:59:01;95600.56;;;6.47
78917;BMP280;68315;48.608;11.436;2024-02-23T10:01:31;95602.38;;;6.45
78917;BMP280;68315;48.608;11.436;2024-02-23T10:03:58;95598.38;;;6.46
78917;BMP280;68315;48.608;11.436;2024-02-23T10:06:27;95595.44;;;6.44
78917;BMP280;68315;48.608;11.436;2024-02-23T10:08:52;95587.06;;;6.42
78917;BMP280;68315;48.608;11.436;2024-02-23T10:11:21;95592.38;;;6.40
78917;BMP280;68315;48.608;11.436;2024-02-23T10:13:50;95591.06;;;6.40
78917;BMP280;68315;48.608;11.436;2024-02-23T10:16:16;95601.44;;;6.42
78917;BMP280;68315;48.608;11.436;2024-02-23T10:18:41;95601.63;;;6.44
78917;BMP280;68315;48.608;11.436;2024-02-23T10:21:07;95610.75;;;6.47
78917;BMP280;68315;48.608;11.436;2024-02-23T10:23:32;95599.81;;;6.47
78917;BMP280;68315;48.608;11.436;2024-02-23T10:25:57;95600.56;;;6.47
78917;BMP280;68315;48.608;11.436;2024-02-23T10:28:23;95597.84;;;6.47
78917;BMP280;68315;48.608;11.436;2024-02-23T10:30:48;95604.56;;;6.46
78917;BMP280;68315;48.608;11.436;2024-02-23T10:33:14;95618.00;;;6.44
78917;BMP280;68315;48.608;11.436;2024-02-23T10:35:39;95616.19;;;6.47
78917;BMP280;68315;48.608;11.436;2024-02-23T10:38:08;95611.47;;;6.47
78917;BMP280;68315;48.608;11.436;2024-02-23T10:40:38;95608.41;;;6.51
78917;BMP280;68315;48.608;11.436;2024-02-23T10:43:06;95605.13;;;6.52
78917;BMP280;68315;48.608;11.436;2024-02-23T10:45:33;95609.31;;;6.53
78917;BMP280;68315;48.608;11.436;2024-02-23T10:48:01;95607.69;;;6.58
78917;BMP280;68315;48.608;11.436;2024-02-23T10:50:26;95612.06;;;6.61
78917;BMP280;68315;48.608;11.436;2024-02-23T10:52:52;95609.00;;;6.64
78917;BMP280;68315;48.608;11.436;2024-02-23T10:55:18;95604.63;;;6.69
78917;BMP280;68315;48.608;11.436;2024-02-23T10:57:43;95607.75;;;6.73
78917;BMP280;68315;48.608;11.436;2024-02-23T11:00:09;95621.06;;;6.76
78917;BMP280;68315;48.608;11.436;2024-02-23T11:02:42;95621.06;;;6.76
78917;BMP280;68315;48.608;11.436;2024-02-23T11:05:08;95607.97;;;6.82
78917;BMP280;68315;48.608;11.436;2024-02-23T11:07:40;95601.63;;;6.87
78917;BMP280;68315;48.608;11.436;2024-02-23T11:10:05;95614.22;;;6.90
78917;BMP280;68315;48.608;11.436;2024-02-23T11:12:31;95606.34;;;6.94
78917;BMP280;68315;48.608;11.436;2024-02-23T11:14:57;95608.16;;;6.92
78917;BMP280;68315;48.608;11.436;2024-02-23T11:17:26;95606.16;;;6.85
78917;BMP280;68315;48.608;11.436;2024-02-23T11:19:51;95610.56;;;6.88
78917;BMP280;68315;48.608;11.436;2024-02-23T11:22:35;95598.16;;;6.87
78917;BMP280;68315;48.608;11.436;2024-02-23T11:25:07;95597.06;;;6.82
78917;BMP280;68315;48.608;11.436;2024-02-23T11:27:37;95589.78;;;6.85
78917;BMP280;68315;48.608;11.436;2024-02-23T11:30:07;95593.59;;;6.82
78917;BMP280;68315;48.608;11.436;2024-02-23T11:32:43;95595.59;;;6.81
78917;BMP280;68315;48.608;11.436;2024-02-23T11:35:13;95583.22;;;6.80
78917;BMP280;68315;48.608;11.436;2024-02-23T11:37:54;95588.66;;;6.80
78917;BMP280;68315;48.608;11.436;2024-02-23T11:40:25;95602.72;;;6.84
78917;BMP280;68315;48.608;11.436;2024-02-23T11:42:50;95606.16;;;6.85
78917;BMP280;68315;48.608;11.436;2024-02-23T11:45:16;95605.09;;;6.88
78917;BMP280;68315;48.608;11.436;2024-02-23T11:47:41;95610.91;;;6.84
78917;BMP280;68315;48.608;11.436;2024-02-23T11:50:09;95604.56;;;6.89
78917;BMP280;68315;48.608;11.436;2024-02-23T11:52:34;95594.19;;;6.95
78917;BMP280;68315;48.608;11.436;2024-02-23T11:55:00;95596.72;;;6.93
78917;BMP280;68315;48.608;11.436;2024-02-23T11:57:25;95587.63;;;6.91
78917;BMP280;68315;48.608;11.436;2024-02-23T11:59:51;95587.63;;;6.91
78917;BMP280;68315;48.608;11.436;2024-02-23T12:02:17;95584.88;;;6.91
78917;BMP280;68315;48.608;11.436;2024-02-23T12:04:42;95580.53;;;6.88
78917;BMP280;68315;48.608;11.436;2024-02-23T12:07:08;95570.31;;;6.88
78917;BMP280;68315;48.608;11.436;2024-02-23T12:09:33;95570.13;;;6.94
78917;BMP280;68315;48.608;11.436;2024-02-23T12:11:58;95570.88;;;6.94
78917;BMP280;68315;48.608;11.436;2024-02-23T12:14:24;95573.97;;;6.91
78917;BMP280;68315;48.608;11.436;2024-02-23T12:16:51;95566.50;;;6.91
78917;BMP280;68315;48.608;11.436;2024-02-23T12:19:16;95554.16;;;6.90
78917;BMP280;68315;48.608;11.436;2024-02-23T12:21:45;95555.41;;;6.89
78917;BMP280;68315;48.608;11.436;2024-02-23T12:24:12;95561.94;;;6.86
78917;BMP280;68315;48.608;11.436;2024-02-23T12:26:37;95558.47;;;6.86
78917;BMP280;68315;48.608;11.436;2024-02-23T12:29:03;95553.75;;;6.86
78917;BMP280;68315;48.608;11.436;2024-02-23T12:31:28;95558.31;;;6.91
78917;BMP280;68315;48.608;11.436;2024-02-23T12:33:54;95565.41;;;6.94
78917;BMP280;68315;48.608;11.436;2024-02-23T12:36:22;95569.44;;;6.93
78917;BMP280;68315;48.608;11.436;2024-02-23T12:38:48;95583.44;;;6.90
78917;BMP280;68315;48.608;11.436;2024-02-23T12:41:13;95583.59;;;6.92
78917;BMP280;68315;48.608;11.436;2024-02-23T12:43:38;95578.31;;;6.94
78917;BMP280;68315;48.608;11.436;2024-02-23T12:46:03;95578.88;;;6.92
78917;BMP280;68315;48.608;11.436;2024-02-23T12:48:28;95576.00;;;6.90
78917;BMP280;68315;48.608;11.436;2024-02-23T12:50:54;95570.53;;;6.90
78917;BMP280;68315;48.608;11.436;2024-02-23T12:53:36;95563.59;;;6.89
78917;BMP280;68315;48.608;11.436;2024-02-23T12:56:13;95568.31;;;6.89
78917;BMP280;68315;48.608;11.436;2024-02-23T12:58:40;95578.88;;;6.92
78917;BMP280;68315;48.608;11.436;2024-02-23T13:01:06;95580.34;;;6.93
78917;BMP280;68315;48.608;11.436;2024-02-23T13:03:32;95569.44;;;6.93
78917;BMP280;68315;48.608;11.436;2024-02-23T13:05:58;95569.06;;;6.97
78917;BMP280;68315;48.608;11.436;2024-02-23T13:08:24;95566.34;;;6.97
78917;BMP280;68315;48.608;11.436;2024-02-23T13:10:50;95575.59;;;6.94
78917;BMP280;68315;48.608;11.436;2024-02-23T13:13:16;95575.06;;;6.95
78917;BMP280;68315;48.608;11.436;2024-02-23T13:15:42;95568.88;;;6.95
78917;BMP280;68315;48.608;11.436;2024-02-23T13:18:07;95559.59;;;6.98
78917;BMP280;68315;48.608;11.436;2024-02-23T13:20:33;95552.34;;;7.00
78917;BMP280;68315;48.608;11.436;2024-02-23T13:22:58;95540.34;;;7.03
78917;BMP280;68315;48.608;11.436;2024-02-23T13:25:23;95530.13;;;7.04
78917;BMP280;68315;48.608;11.436;2024-02-23T13:27:49;95532.50;;;7.07
78917;BMP280;68315;48.608;11.436;2024-02-23T13:30:14;95525.97;;;7.11
78917;BMP280;68315;48.608;11.436;2024-02-23T13:32:39;95530.13;;;7.12
78917;BMP280;68315;48.608;11.436;2024-02-23T13:35:05;95540.34;;;7.19
78917;BMP280;68315;48.608;11.436;2024-02-23T13:37:31;95543.59;;;7.17
78917;BMP280;68315;48.608;11.436;2024-02-23T13:39:56;95556.38;;;7.15
78917;BMP280;68315;48.608;11.436;2024-02-23T13:42:22;95551.06;;;7.09
78917;BMP280;68315;48.608;11.436;2024-02-23T13:44:47;95557.09;;;7.07
78917;BMP280;68315;48.608;11.436;2024-02-23T13:47:13;95566.34;;;7.04
78917;BMP280;68315;48.608;11.436;2024-02-23T13:49:38;95561.44;;;6.88
78917;BMP280;68315;48.608;11.436;2024-02-23T13:52:03;95578.25;;;6.71
78917;BMP280;68315;48.608;11.436;2024-02-23T13:54:29;95552.59;;;6.59
78917;BMP280;68315;48.608;11.436;2024-02-23T13:56:54;95548.75;;;6.47
78917;BMP280;68315;48.608;11.436;2024-02-23T13:59:19;95539.06;;;6.38
78917;BMP280;68315;48.608;11.436;2024-02-23T14:01:44;95525.59;;;6.33